Time;durP1;ratioP1;P1;durP2;ratioP2;P2;SDS_P1;SDS_P2;PMS_P1;PMS_P2;Temp;Humidity;BMP_temperature;BMP_pressure;BME280_temperature;BME280_humidity;BME280_pressure;Samples;Min_cycle;Max_cycle;Signal;HPM_P1;HPM_P2
2021/04/28 00:01:38;;;;;;;31.15;14.93;;;;;;;9.31;76.47;100135.28;4375357;32;20035;-74
2021/04/28 00:04:05;;;;;;;29.58;13.57;;;;;;;9.29;76.18;100132.13;4376261;32;20030;-74
2021/04/28 00:06:31;;;;;;;29.08;14.35;;;;;;;9.31;76.10;100140.91;4377787;32;20079;-74
2021/04/28 00:08:58;;;;;;;29.35;13.57;;;;;;;9.27;76.93;100139.44;4377559;32;20062;-74
2021/04/28 00:11:23;;;;;;;27.85;13.95;;;;;;;9.29;76.96;100134.94;4374965;32;20505;-75
2021/04/28 00:13:49;;;;;;;31.10;14.20;;;;;;;9.29;76.73;100131.34;4375487;32;20738;-74
2021/04/28 00:16:19;;;;;;;29.48;13.35;;;;;;;9.51;76.55;100133.09;4373981;32;20124;-74
2021/04/28 00:18:46;;;;;;;25.98;13.55;;;;;;;9.47;76.47;100126.78;4375860;32;20050;-75
2021/04/28 00:21:14;;;;;;;24.75;13.07;;;;;;;9.56;76.16;100137.38;4375976;32;20035;-74
2021/04/28 00:23:40;;;;;;;29.27;13.98;;;;;;;9.38;75.67;100126.66;4376130;32;20416;-75
2021/04/28 00:26:07;;;;;;;25.15;13.93;;;;;;;9.51;75.70;100126.69;4375015;32;20075;-75
2021/04/28 00:28:34;;;;;;;27.42;13.13;;;;;;;9.52;75.90;100126.25;4375529;32;20051;-75
2021/04/28 00:31:00;;;;;;;27.65;13.40;;;;;;;9.39;75.85;100119.78;4374711;32;20113;-75
2021/04/28 00:33:25;;;;;;;31.58;14.45;;;;;;;9.40;75.43;100124.19;4375572;32;20035;-75
2021/04/28 00:35:51;;;;;;;30.60;13.68;;;;;;;9.45;74.96;100120.81;4377810;32;20553;-75
2021/04/28 00:38:16;;;;;;;28.05;13.80;;;;;;;9.44;74.78;100124.87;4374781;32;20065;-75
2021/04/28 00:40:42;;;;;;;29.52;13.68;;;;;;;9.48;75.23;100128.34;4373045;32;20069;-75
2021/04/28 00:43:09;;;;;;;28.08;13.75;;;;;;;9.42;75.90;100120.94;4374438;32;20064;-75
2021/04/28 00:45:35;;;;;;;29.05;12.73;;;;;;;9.51;75.87;100121.09;4379138;32;20050;-75
2021/04/28 00:48:07;;;;;;;24.90;12.70;;;;;;;9.47;76.26;100121.19;4378123;32;20092;-75
2021/04/28 00:50:37;;;;;;;28.38;13.23;;;;;;;9.55;75.83;100118.94;4374127;32;20081;-75
2021/04/28 00:53:04;;;;;;;34.30;14.30;;;;;;;9.53;75.76;100116.59;4375998;32;20031;-75
2021/04/28 00:55:30;;;;;;;28.30;14.57;;;;;;;9.45;76.03;100120.06;4373224;32;20039;-75
2021/04/28 00:57:56;;;;;;;28.48;14.80;;;;;;;9.49;75.82;100113.09;4376228;32;20148;-76
2021/04/28 01:00:23;;;;;;;22.80;13.07;;;;;;;9.50;75.92;100113.88;4374103;32;20078;-75
2021/04/28 01:02:50;;;;;;;25.70;13.65;;;;;;;9.60;76.09;100115.56;4374637;32;20133;-76
2021/04/28 01:05:17;;;;;;;27.13;13.40;;;;;;;9.37;76.88;100111.06;4374860;32;20301;-76
2021/04/28 01:07:45;;;;;;;24.27;13.25;;;;;;;9.26;77.45;100110.56;4375492;32;20447;-75
2021/04/28 01:10:19;;;;;;;29.58;12.77;;;;;;;9.61;76.42;100114.34;4377125;32;20069;-76
2021/04/28 01:12:45;;;;;;;23.08;13.68;;;;;;;9.68;75.69;100114.13;4376320;32;20402;-75
2021/04/28 01:15:14;;;;;;;22.17;12.63;;;;;;;9.66;75.40;100108.97;4372187;32;20074;-75
2021/04/28 01:17:41;;;;;;;26.40;12.30;;;;;;;9.68;75.63;100114.13;4373367;32;20468;-75
2021/04/28 01:20:10;;;;;;;26.23;12.68;;;;;;;9.65;75.19;100104.59;4373226;32;20066;-76
2021/04/28 01:22:39;;;;;;;26.67;13.30;;;;;;;9.39;76.61;100105.75;4378164;32;20101;-76
2021/04/28 01:25:06;;;;;;;24.58;13.62;;;;;;;9.60;75.65;100109.94;4372807;32;20125;-76
2021/04/28 01:27:33;;;;;;;27.13;13.85;;;;;;;9.62;75.29;100101.87;4375337;32;20128;-76
2021/04/28 01:29:59;;;;;;;27.02;13.70;;;;;;;9.37;75.45;100097.00;4375716;32;20055;-76
2021/04/28 01:32:27;;;;;;;27.98;14.02;;;;;;;9.50;75.26;100097.81;4377558;32;20034;-76
2021/04/28 01:34:55;;;;;;;24.98;13.07;;;;;;;9.47;75.07;100098.72;4375747;32;20101;-76
2021/04/28 01:37:23;;;;;;;23.87;12.37;;;;;;;9.56;74.99;100098.84;4376311;32;21409;-76
2021/04/28 01:39:50;;;;;;;22.52;11.82;;;;;;;9.50;75.50;100100.63;4374019;32;20073;-76
2021/04/28 01:42:17;;;;;;;19.98;10.77;;;;;;;9.48;75.37;100094.66;4362562;32;20042;-76
2021/04/28 01:44:45;;;;;;;19.25;10.57;;;;;;;9.10;75.92;100096.59;4376267;32;20096;-76
2021/04/28 01:47:12;;;;;;;21.73;10.00;;;;;;;9.00;76.36;100092.06;4376390;32;20094;-76
2021/04/28 01:49:40;;;;;;;20.15;10.45;;;;;;;9.02;77.04;100091.63;4377617;32;20023;-76
2021/04/28 01:52:05;;;;;;;23.55;9.98;;;;;;;9.31;76.55;100089.56;4376023;32;20054;-76
2021/04/28 01:54:32;;;;;;;21.98;10.43;;;;;;;9.44;76.50;100094.00;4375966;32;20439;-76
2021/04/28 01:56:58;;;;;;;17.73;10.18;;;;;;;9.47;75.45;100097.91;4374484;32;20078;-76
2021/04/28 01:59:24;;;;;;;20.60;9.82;;;;;;;9.41;75.27;100091.28;4377974;32;20026;-76
2021/04/28 02:01:53;;;;;;;22.60;10.27;;;;;;;9.51;75.51;100095.81;4372697;32;20078;-76
2021/04/28 02:04:19;;;;;;;22.20;10.05;;;;;;;9.47;75.17;100092.28;4373548;32;20085;-76
2021/04/28 02:06:48;;;;;;;21.25;10.77;;;;;;;9.46;75.19;100091.53;4373625;32;20043;-76
2021/04/28 02:09:14;;;;;;;25.25;10.88;;;;;;;9.50;74.91;100099.81;4376772;32;20098;-76
2021/04/28 02:11:39;;;;;;;22.20;10.10;;;;;;;9.30;74.90;100093.63;4378056;32;20043;-76
2021/04/28 02:14:06;;;;;;;20.83;9.85;;;;;;;9.19;76.02;100093.12;4375604;32;20043;-76
2021/04/28 02:16:37;;;;;;;26.27;10.35;;;;;;;9.06;76.91;100095.13;4374174;32;20096;-76
2021/04/28 02:19:06;;;;;;;20.05;9.80;;;;;;;9.08;77.19;100096.25;4375123;32;20042;-75
2021/04/28 02:21:33;;;;;;;20.42;9.68;;;;;;;9.24;75.59;100084.94;4374823;32;20082;-76
2021/04/28 02:24:00;;;;;;;19.98;10.27;;;;;;;8.93;76.10;100086.62;4375728;32;20046;-76
2021/04/28 02:26:26;;;;;;;17.20;10.13;;;;;;;8.88;76.95;100090.00;4377369;32;20141;-76
2021/04/28 02:28:51;;;;;;;18.37;9.35;;;;;;;8.89;77.64;100088.75;4376532;32;20106;-76
2021/04/28 02:31:17;;;;;;;22.25;9.65;;;;;;;8.93;77.45;100089.44;4376102;32;20061;-76
2021/04/28 02:33:43;;;;;;;19.73;9.48;;;;;;;9.08;76.51;100090.63;4373400;32;20408;-75
2021/04/28 02:36:09;;;;;;;21.40;9.65;;;;;;;8.98;76.48;100088.91;4374184;32;20039;-76
2021/04/28 02:38:48;;;;;;;19.40;9.25;;;;;;;9.17;76.28;100090.75;4373842;32;20034;-76
2021/04/28 02:41:15;;;;;;;20.50;9.95;;;;;;;9.05;77.32;100083.09;4374744;32;20066;-76
2021/04/28 02:43:41;;;;;;;15.93;8.82;;;;;;;9.00;76.75;100086.47;4376400;32;20106;-76
2021/04/28 02:46:11;;;;;;;21.27;9.13;;;;;;;8.93;76.59;100086.62;4375582;32;20091;-76
2021/04/28 02:48:38;;;;;;;19.27;9.50;;;;;;;8.97;76.28;100092.16;4376452;32;20047;-75
2021/04/28 02:51:05;;;;;;;21.27;10.65;;;;;;;9.17;75.93;100085.16;4373318;32;20098;-75
2021/04/28 02:53:32;;;;;;;14.95;8.80;;;;;;;8.86;76.66;100088.84;4377007;32;20074;-76
2021/04/28 02:55:59;;;;;;;15.23;9.50;;;;;;;8.84;76.84;100082.91;4377840;32;20124;-75
2021/04/28 02:58:27;;;;;;;17.20;9.85;;;;;;;9.08;76.52;100073.00;4381022;32;20069;-75
2021/04/28 03:00:55;;;;;;;16.42;8.68;;;;;;;8.90;76.93;100079.09;4376560;32;20371;-75
2021/04/28 03:03:21;;;;;;;14.40;9.40;;;;;;;8.86;77.05;100077.63;4375529;32;20148;-75
2021/04/28 03:05:50;;;;;;;20.90;9.88;;;;;;;8.78;76.53;100074.25;4374685;32;20104;-75
2021/04/28 03:08:16;;;;;;;20.27;9.82;;;;;;;9.08;76.08;100073.78;4378186;32;20070;-75
2021/04/28 03:10:43;;;;;;;19.73;9.57;;;;;;;9.12;75.78;100070.87;4375090;32;20023;-75
2021/04/28 03:13:09;;;;;;;20.55;11.15;;;;;;;9.30;75.42;100077.53;4379132;32;20470;-75
2021/04/28 03:15:34;;;;;;;18.02;9.85;;;;;;;9.37;74.80;100074.53;4361715;32;20443;-75
2021/04/28 03:18:00;;;;;;;19.30;9.95;;;;;;;9.31;74.83;100081.94;4378293;32;20085;-75
2021/04/28 03:20:27;;;;;;;18.92;9.13;;;;;;;9.15;75.56;100076.41;4378947;32;20473;-75
2021/04/28 03:22:53;;;;;;;17.55;9.23;;;;;;;9.10;75.43;100074.13;4377974;32;20026;-75
2021/04/28 03:25:19;;;;;;;16.27;8.98;;;;;;;9.34;75.41;100071.84;4378256;32;20062;-75
2021/04/28 03:27:46;;;;;;;17.85;9.07;;;;;;;9.35;74.70;100065.78;4378064;32;20035;-75
2021/04/28 03:30:12;;;;;;;15.98;8.80;;;;;;;9.17;75.37;100068.31;4377521;32;20057;-75
2021/04/28 03:32:38;;;;;;;18.52;9.40;;;;;;;9.40;74.37;100075.66;4375748;32;20114;-75
2021/04/28 03:35:04;;;;;;;17.98;9.38;;;;;;;9.40;74.70;100070.03;4376076;32;20082;-75
2021/04/28 03:37:30;;;;;;;20.77;9.18;;;;;;;9.19;75.13;100071.47;4366513;32;20090;-76
2021/04/28 03:39:56;;;;;;;17.62;9.48;;;;;;;9.14;76.15;100072.00;4378710;32;20504;-75
2021/04/28 03:42:23;;;;;;;19.45;9.70;;;;;;;8.93;75.92;100074.66;4378700;32;20078;-75
2021/04/28 03:44:51;;;;;;;20.23;10.10;;;;;;;9.25;74.91;100072.50;4374973;32;20109;-75
2021/04/28 03:47:19;;;;;;;20.25;12.55;;;;;;;9.39;74.30;100069.25;4378777;32;20110;-75
2021/04/28 03:49:45;;;;;;;16.80;9.75;;;;;;;9.07;75.20;100063.78;4379585;32;20062;-75
2021/04/28 03:52:10;;;;;;;20.42;10.05;;;;;;;9.07;75.73;100066.59;4378251;32;20135;-76
2021/04/28 03:54:37;;;;;;;18.98;9.95;;;;;;;9.19;74.34;100057.44;4375767;32;20480;-75
2021/04/28 03:57:05;;;;;;;18.50;9.45;;;;;;;9.29;74.25;100053.50;4376340;32;20376;-75
2021/04/28 03:59:31;;;;;;;17.20;9.18;;;;;;;9.35;73.58;100053.75;4378367;32;20070;-76
2021/04/28 04:01:56;;;;;;;21.50;8.80;;;;;;;9.21;74.62;100052.12;4357727;32;20170;-75
2021/04/28 04:04:22;;;;;;;20.37;8.50;;;;;;;9.26;74.76;100054.41;4363262;32;20098;-75
2021/04/28 04:06:47;;;;;;;17.17;9.20;;;;;;;9.23;74.46;100048.88;4359527;32;20160;-75
2021/04/28 04:09:13;;;;;;;16.80;8.95;;;;;;;9.31;75.00;100051.06;4362241;32;20057;-75
2021/04/28 04:11:39;;;;;;;15.27;8.45;;;;;;;9.30;73.91;100045.88;4362019;32;20107;-75
2021/04/28 04:14:05;;;;;;;25.17;10.10;;;;;;;9.33;73.98;100034.53;4363435;32;20471;-75
2021/04/28 04:16:31;;;;;;;20.90;8.48;;;;;;;9.02;75.24;100043.91;4364913;32;20446;-75
2021/04/28 04:18:57;;;;;;;15.80;9.18;;;;;;;9.01;75.12;100039.53;4359929;32;20116;-75
2021/04/28 04:21:23;;;;;;;20.17;8.68;;;;;;;9.17;74.60;100039.44;4361881;32;20058;-75
2021/04/28 04:23:48;;;;;;;15.45;9.35;;;;;;;9.31;73.52;100056.69;4360183;32;20439;-75
2021/04/28 04:26:14;;;;;;;20.90;9.50;;;;;;;9.01;74.13;100037.50;4360384;32;20031;-75
2021/04/28 04:28:40;;;;;;;21.95;9.65;;;;;;;9.16;74.02;100043.50;4361932;32;20123;-75
2021/04/28 04:31:06;;;;;;;21.98;9.43;;;;;;;9.17;74.69;100043.03;4360702;32;20364;-75
2021/04/28 04:33:32;;;;;;;17.58;8.73;;;;;;;9.10;74.36;100037.66;4362630;32;20059;-75
2021/04/28 04:35:57;;;;;;;18.12;8.63;;;;;;;9.33;74.07;100042.97;4358986;32;20032;-75
2021/04/28 04:38:23;;;;;;;24.83;10.10;;;;;;;9.42;73.39;100045.91;4356257;32;20363;-75
2021/04/28 04:40:49;;;;;;;23.30;9.32;;;;;;;9.43;73.46;100043.87;4358535;32;20067;-75
2021/04/28 04:43:15;;;;;;;21.67;10.00;;;;;;;9.43;73.43;100046.69;4363134;32;20040;-75
2021/04/28 04:45:41;;;;;;;18.75;9.05;;;;;;;9.15;73.94;100045.53;4355429;32;20217;-75
2021/04/28 04:48:08;;;;;;;22.45;9.43;;;;;;;9.19;74.08;100045.41;4358625;32;20073;-75
2021/04/28 04:50:35;;;;;;;22.35;9.38;;;;;;;9.22;74.26;100042.50;4360702;32;20083;-76
2021/04/28 04:53:03;;;;;;;20.65;8.88;;;;;;;9.51;73.94;100045.25;4366011;32;20112;-75
2021/04/28 04:55:28;;;;;;;21.83;10.13;;;;;;;9.54;73.42;100050.75;4357168;32;20035;-75
2021/04/28 04:57:54;;;;;;;21.98;9.20;;;;;;;9.24;74.29;100047.66;4359723;32;20490;-75
2021/04/28 05:00:20;;;;;;;20.70;10.15;;;;;;;9.25;74.71;100041.63;4358571;32;20032;-75
2021/04/28 05:02:47;;;;;;;27.23;10.68;;;;;;;9.50;73.21;100046.47;4367956;32;20046;-75
2021/04/28 05:05:14;;;;;;;20.92;10.35;;;;;;;9.58;72.16;100042.22;4377564;32;20125;-76
2021/04/28 05:07:39;;;;;;;25.23;11.12;;;;;;;9.63;71.74;100045.25;4376623;32;20067;-74
2021/04/28 05:10:07;;;;;;;25.98;10.82;;;;;;;9.59;72.03;100046.59;4375564;32;20419;-73
2021/04/28 05:12:33;;;;;;;22.40;10.90;;;;;;;9.59;72.48;100041.75;4373538;32;20065;-73
2021/04/28 05:14:59;;;;;;;24.02;10.45;;;;;;;9.62;72.04;100049.28;4376666;32;20069;-74
2021/04/28 05:17:25;;;;;;;30.08;10.75;;;;;;;9.37;72.68;100056.91;4377939;32;20031;-74
2021/04/28 05:19:51;;;;;;;23.15;11.68;;;;;;;9.35;73.27;100053.75;4376208;32;20066;-74
2021/04/28 05:22:21;;;;;;;23.90;11.12;;;;;;;9.24;73.49;100050.47;4377010;32;20445;-74
2021/04/28 05:24:47;;;;;;;25.05;11.10;;;;;;;9.31;73.38;100048.25;4372677;32;20046;-75
2021/04/28 05:27:13;;;;;;;21.80;11.63;;;;;;;9.38;73.79;100050.84;4374068;32;20094;-75
2021/04/28 05:29:38;;;;;;;26.85;13.18;;;;;;;9.31;73.42;100051.06;4376510;32;20150;-75
2021/04/28 05:32:04;;;;;;;24.90;12.73;;;;;;;9.30;74.12;100054.31;4373759;32;20070;-74
2021/04/28 05:34:30;;;;;;;27.02;12.40;;;;;;;9.24;73.56;100047.66;4376873;32;20035;-75
2021/04/28 05:36:55;;;;;;;26.17;13.45;;;;;;;9.69;72.36;100045.47;4372827;32;20035;-74
2021/04/28 05:39:21;;;;;;;29.90;14.15;;;;;;;9.76;71.69;100051.66;4374013;32;20031;-75
2021/04/28 05:41:47;;;;;;;26.83;13.35;;;;;;;9.62;71.84;100049.28;4379430;32;20366;-74
2021/04/28 05:44:13;;;;;;;37.08;14.10;;;;;;;9.74;70.88;100056.16;4377394;32;20078;-75
2021/04/28 05:46:39;;;;;;;29.30;14.98;;;;;;;9.49;73.53;100050.53;4377034;32;20112;-75
2021/04/28 05:49:04;;;;;;;29.48;13.40;;;;;;;9.69;73.08;100051.09;4376151;32;20117;-75
2021/04/28 05:51:31;;;;;;;28.15;13.77;;;;;;;9.60;72.85;100054.56;4374856;32;20100;-75
2021/04/28 05:53:57;;;;;;;35.22;15.05;;;;;;;9.74;72.80;100056.16;4374850;32;20539;-75
2021/04/28 05:56:22;;;;;;;26.80;14.10;;;;;;;9.77;72.89;100058.06;4375169;32;20104;-75
2021/04/28 05:58:48;;;;;;;30.70;13.98;;;;;;;9.82;71.67;100058.28;4377226;32;20084;-75
2021/04/28 06:01:15;;;;;;;27.15;13.50;;;;;;;9.94;72.41;100071.53;4379434;32;20193;-76
2021/04/28 06:03:41;;;;;;;28.55;12.88;;;;;;;10.12;71.68;100061.78;4372453;32;20101;-75
2021/04/28 06:06:08;;;;;;;29.50;14.35;;;;;;;9.90;71.51;100062.44;4376613;32;20127;-75
2021/04/28 06:08:34;;;;;;;28.10;14.23;;;;;;;10.02;71.91;100058.03;4373593;32;20070;-75
2021/04/28 06:11:00;;;;;;;33.63;13.35;;;;;;;10.38;70.96;100060.50;4372832;32;20105;-75
2021/04/28 06:13:26;;;;;;;26.87;13.38;;;;;;;10.47;70.04;100058.56;4357593;32;20412;-75
2021/04/28 06:15:52;;;;;;;26.12;13.02;;;;;;;10.62;68.99;100058.84;4371331;32;20034;-75
2021/04/28 06:18:17;;;;;;;28.00;13.57;;;;;;;10.66;68.69;100062.31;4374652;32;20313;-75
2021/04/28 06:20:43;;;;;;;29.83;13.02;;;;;;;10.51;69.79;100058.44;4377108;32;20043;-75
2021/04/28 06:23:09;;;;;;;33.10;13.38;;;;;;;10.48;69.65;100053.72;4375952;32;20117;-75
2021/04/28 06:25:35;;;;;;;31.12;13.10;;;;;;;10.57;69.61;100050.97;4373345;32;20035;-75
2021/04/28 06:28:01;;;;;;;30.00;12.23;;;;;;;10.66;69.16;100049.06;4376591;32;20090;-75
2021/04/28 06:30:27;;;;;;;28.10;12.57;;;;;;;10.82;68.57;100043.25;4377544;32;20039;-75
2021/04/28 06:32:52;;;;;;;23.77;11.52;;;;;;;11.10;67.26;100050.66;4375929;32;20085;-75
2021/04/28 06:35:18;;;;;;;24.20;12.20;;;;;;;10.94;67.69;100056.47;4373854;32;20126;-76
2021/04/28 06:37:44;;;;;;;26.48;11.98;;;;;;;10.97;68.03;100044.31;4374347;32;20082;-77
2021/04/28 06:40:11;;;;;;;27.00;12.43;;;;;;;11.01;67.70;100059.03;4372013;32;20382;-76
2021/04/28 06:42:37;;;;;;;28.98;11.20;;;;;;;11.18;67.35;100051.16;4366440;32;20074;-78
2021/04/28 06:45:05;;;;;;;29.87;11.02;;;;;;;11.18;67.28;100048.34;4371543;32;20403;-78
2021/04/28 06:47:31;;;;;;;27.67;11.02;;;;;;;11.30;67.38;100051.09;4374780;32;20066;-77
2021/04/28 06:49:56;;;;;;;22.37;10.80;;;;;;;11.61;66.00;100054.72;4374184;32;20541;-77
2021/04/28 06:52:22;;;;;;;19.12;10.48;;;;;;;11.48;66.50;100054.00;4373311;32;20070;-77
2021/04/28 06:54:48;;;;;;;18.67;9.82;;;;;;;11.58;65.68;100060.47;4373929;32;20074;-76
2021/04/28 06:57:13;;;;;;;32.47;12.68;;;;;;;11.91;64.72;100059.56;4368532;32;20086;-77
2021/04/28 06:59:39;;;;;;;32.47;10.85;;;;;;;11.82;65.10;100055.94;4368722;32;20438;-76
2021/04/28 07:02:04;;;;;;;28.52;10.50;;;;;;;11.98;65.09;100053.66;4368805;32;20205;-77
2021/04/28 07:04:31;;;;;;;32.00;10.73;;;;;;;11.82;65.40;100051.06;4365675;32;20078;-77
2021/04/28 07:06:57;;;;;;;32.00;12.70;;;;;;;11.82;66.24;100059.53;4367137;32;21146;-76
2021/04/28 07:09:22;;;;;;;24.20;11.15;;;;;;;11.72;65.48;100063.56;4370522;32;20078;-76
2021/04/28 07:11:48;;;;;;;31.00;10.70;;;;;;;11.84;65.56;100065.50;4368992;32;20643;-77
2021/04/28 07:14:14;;;;;;;24.48;10.45;;;;;;;11.84;65.30;100061.88;4371951;32;20359;-76
2021/04/28 07:16:39;;;;;;;27.87;10.27;;;;;;;11.89;64.98;100059.25;4372420;32;20834;-76
2021/04/28 07:19:05;;;;;;;23.30;10.07;;;;;;;12.08;65.17;100060.91;4369688;32;20070;-77
2021/04/28 07:21:31;;;;;;;22.50;9.32;;;;;;;12.21;63.99;100063.56;4373044;32;20073;-76
2021/04/28 07:23:59;;;;;;;28.55;8.80;;;;;;;12.40;63.68;100067.25;4369459;32;20074;-76
2021/04/28 07:26:25;;;;;;;27.98;9.77;;;;;;;12.58;62.66;100064.47;4365452;32;20046;-77
2021/04/28 07:28:51;;;;;;;22.37;9.88;;;;;;;12.50;62.82;100074.47;4367321;32;20179;-75
2021/04/28 07:31:19;;;;;;;26.62;11.00;;;;;;;12.49;62.98;100070.84;4371417;32;20122;-75
2021/04/28 07:33:45;;;;;;;27.00;10.13;;;;;;;12.46;63.03;100071.81;4368915;32;20439;-75
2021/04/28 07:36:11;;;;;;;27.92;9.85;;;;;;;12.51;62.78;100064.75;4370257;32;20082;-76
2021/04/28 07:38:38;;;;;;;24.17;9.35;;;;;;;12.66;62.77;100077.00;4370228;32;20237;-75
2021/04/28 07:41:04;;;;;;;23.25;9.07;;;;;;;12.86;61.35;100075.28;4373823;32;20137;-76
2021/04/28 07:43:30;;;;;;;28.27;8.93;;;;;;;13.10;60.37;100075.50;4371230;32;20077;-77
2021/04/28 07:45:57;;;;;;;25.70;9.25;;;;;;;12.98;61.21;100082.06;4372275;32;20116;-78
2021/04/28 07:48:22;;;;;;;24.80;10.20;;;;;;;13.11;60.47;100088.34;4371495;32;20423;-75
2021/04/28 07:50:48;;;;;;;22.08;8.35;;;;;;;13.27;60.19;100083.16;4370945;32;20105;-75
2021/04/28 07:53:14;;;;;;;22.25;7.10;;;;;;;13.46;58.84;100079.03;4372524;32;20541;-75
2021/04/28 07:55:43;;;;;;;26.45;7.47;;;;;;;13.54;58.45;100083.12;4368674;32;20499;-74
2021/04/28 07:58:08;;;;;;;19.48;5.87;;;;;;;13.77;57.02;100085.25;4370424;32;20501;-73
2021/04/28 08:00:34;;;;;;;19.20;5.65;;;;;;;13.88;57.40;100088.37;4365348;32;20082;-76
2021/04/28 08:03:00;;;;;;;20.00;6.00;;;;;;;13.79;56.85;100093.25;4371475;32;20093;-74
2021/04/28 08:05:25;;;;;;;25.88;5.57;;;;;;;13.85;56.46;100085.69;4366598;32;20087;-74
2021/04/28 08:07:52;;;;;;;22.45;5.65;;;;;;;13.65;56.62;100080.56;4371360;32;20149;-75
2021/04/28 08:10:18;;;;;;;18.52;5.47;;;;;;;13.39;56.75;100087.84;4372624;32;20046;-74
2021/04/28 08:12:44;;;;;;;22.67;6.28;;;;;;;13.53;56.93;100092.06;4373914;32;20112;-75
2021/04/28 08:15:11;;;;;;;18.25;6.43;;;;;;;13.52;57.11;100076.34;4370591;32;20066;-74
2021/04/28 08:17:39;;;;;;;25.00;6.35;;;;;;;13.68;57.35;100088.09;4371262;32;20141;-74
2021/04/28 08:20:06;;;;;;;34.50;7.10;;;;;;;13.64;56.00;100092.34;4370609;32;20083;-74
2021/04/28 08:22:34;;;;;;;23.85;6.40;;;;;;;13.61;55.48;100099.75;4369981;32;20413;-74
2021/04/28 08:25:00;;;;;;;19.58;6.50;;;;;;;13.36;55.95;100102.94;4372821;32;20147;-74
2021/04/28 08:27:26;;;;;;;25.08;6.47;;;;;;;13.39;55.92;100101.19;4369379;32;20113;-74
2021/04/28 08:29:52;;;;;;;24.60;6.80;;;;;;;13.37;56.16;100103.69;4371095;32;20074;-74
2021/04/28 08:32:18;;;;;;;39.95;6.45;;;;;;;13.41;55.94;100095.88;4366867;32;20103;-74
2021/04/28 08:34:44;;;;;;;20.40;6.05;;;;;;;13.40;55.43;100105.59;4372333;32;20077;-75
2021/04/28 08:37:10;;;;;;;29.35;6.22;;;;;;;13.61;54.34;100105.41;4374121;32;20097;-74
2021/04/28 08:39:36;;;;;;;20.98;5.50;;;;;;;13.78;53.33;100114.31;4375059;32;20082;-75
2021/04/28 08:42:01;;;;;;;43.97;8.18;;;;;;;14.00;53.17;100100.72;4372497;32;20452;-74
2021/04/28 08:44:29;;;;;;;21.98;5.82;;;;;;;14.18;52.71;100109.16;4373730;32;20078;-75
2021/04/28 08:46:57;;;;;;;37.45;7.00;;;;;;;14.41;51.12;100104.78;4371589;32;20093;-75
2021/04/28 08:49:23;;;;;;;31.62;7.10;;;;;;;14.77;49.60;100118.75;4370251;32;20078;-74
2021/04/28 08:51:48;;;;;;;33.92;7.70;;;;;;;15.17;48.37;100124.75;4372345;32;20066;-75
2021/04/28 08:54:14;;;;;;;28.65;6.43;;;;;;;15.34;47.12;100114.53;4371192;32;20101;-75
2021/04/28 08:56:48;;;;;;;29.70;13.52;;;;;;;15.40;46.42;100121.13;4372486;32;20080;-74
2021/04/28 08:59:14;;;;;;;28.27;13.35;;;;;;;15.50;46.69;100128.28;4368832;32;20046;-74
2021/04/28 09:01:42;;;;;;;21.65;9.20;;;;;;;15.54;45.47;100131.69;4357315;32;20096;-74
2021/04/28 09:04:17;;;;;;;39.53;19.77;;;;;;;15.53;45.05;100127.28;4370698;32;20155;-75
2021/04/28 09:06:44;;;;;;;26.27;8.32;;;;;;;15.14;44.67;100134.22;4369018;32;20420;-74
2021/04/28 09:09:14;;;;;;;34.25;12.50;;;;;;;14.75;45.05;100133.38;4369972;32;20055;-75
2021/04/28 09:14:22;;;;;;;27.05;13.60;;;;;;;14.84;46.33;100136.16;3972775;32;15160182;-73
2021/04/28 09:22:05;;;;;;;29.55;8.52;;;;;;;15.56;43.76;100143.34;3969486;32;15028231;-74
2021/04/28 09:24:45;;;;;;;28.25;8.50;;;;;;;15.56;43.76;100143.34;4416336;32;20586;-74
2021/04/28 09:27:27;;;;;;;37.20;8.77;;;;;;;15.03;43.01;100136.84;4414165;32;20042;-74
2021/04/28 09:29:53;;;;;;;23.17;6.70;;;;;;;15.24;43.01;100144.22;4415769;32;20045;-77
2021/04/28 09:32:19;;;;;;;22.23;6.70;;;;;;;15.09;43.11;100141.34;4413167;32;20105;-75
2021/04/28 09:34:44;;;;;;;37.55;6.28;;;;;;;15.20;42.53;100143.62;4416557;32;20030;-77
2021/04/28 09:37:14;;;;;;;18.00;6.00;;;;;;;15.25;42.57;100142.97;4421229;32;20461;-76
2021/04/28 09:42:24;;;;;;;19.25;5.90;;;;;;;15.61;42.20;100143.44;3960154;32;15028990;-76
2021/04/28 09:44:50;;;;;;;25.17;6.25;;;;;;;15.41;41.96;100156.72;4400676;32;20068;-77
2021/04/28 09:47:20;;;;;;;25.92;6.53;;;;;;;15.32;41.65;100146.19;4409695;32;20038;-76
2021/04/28 09:52:37;;;;;;;25.30;7.30;;;;;;;16.49;39.74;100152.72;3990244;31;15023218;-79
2021/04/28 09:57:44;;;;;;;19.30;6.28;;;;;;;16.66;38.19;100165.09;3986221;32;15023429;-76
2021/04/28 10:05:35;;;;;;;33.30;6.03;;;;;;;16.41;38.78;100153.59;3975997;32;15049375;-76
2021/04/28 10:08:21;;;;;;;38.58;14.00;;;;;;;16.41;38.78;100153.59;4427833;32;20029;-76
2021/04/28 10:10:50;;;;;;;33.35;7.55;;;;;;;16.28;38.87;100150.25;4430312;32;20561;-78
2021/04/28 10:13:16;;;;;;;24.48;9.18;;;;;;;16.23;39.24;100160.25;4429202;32;20088;-76
2021/04/28 10:15:44;;;;;;;23.92;7.12;;;;;;;16.12;39.70;100157.25;4430073;32;20076;-78
2021/04/28 10:18:13;;;;;;;18.37;6.87;;;;;;;16.29;39.75;100154.69;4430919;32;20077;-76
2021/04/28 10:20:42;;;;;;;22.23;6.78;;;;;;;16.27;39.26;100145.87;4429783;32;20033;-76
2021/04/28 10:23:10;;;;;;;24.65;6.82;;;;;;;16.26;38.98;100153.59;4427349;32;20403;-76
2021/04/28 10:25:38;;;;;;;26.12;7.10;;;;;;;16.19;38.80;100151.16;4428893;32;20057;-77
2021/04/28 10:28:06;;;;;;;20.70;9.15;;;;;;;16.33;38.66;100160.94;4430983;32;20064;-76
2021/04/28 10:30:48;;;;;;;26.60;8.40;;;;;;;16.41;39.02;100157.19;4425415;32;20100;-78
2021/04/28 10:33:24;;;;;;;19.58;7.30;;;;;;;16.87;38.49;100160.22;4427642;32;20033;-75
2021/04/28 10:35:51;;;;;;;17.73;7.25;;;;;;;16.82;37.46;100160.94;4428181;32;20099;-75
2021/04/28 10:38:21;;;;;;;18.42;6.75;;;;;;;16.98;37.81;100158.34;4429768;32;20071;-74
2021/04/28 10:40:48;;;;;;;20.80;8.80;;;;;;;16.62;38.35;100153.16;4427982;32;20085;-73
2021/04/28 10:43:17;;;;;;;18.67;6.10;;;;;;;16.69;37.02;100158.44;4429295;32;20427;-73
2021/04/28 10:45:43;;;;;;;30.48;6.05;;;;;;;16.53;38.15;100164.66;4429843;32;20149;-73
2021/04/28 10:48:11;;;;;;;16.52;5.15;;;;;;;16.40;38.18;100157.69;4429031;32;20033;-74
2021/04/28 10:55:56;;;;;;;18.42;5.55;;;;;;;15.89;39.14;100167.41;3979470;32;15021696;-73
2021/04/28 11:19:23;;;;;;;19.98;6.30;;;;;;;14.45;40.36;100165.63;3973608;32;15024300;-73
2021/04/28 11:22:17;;;;;;;19.37;5.95;;;;;;;14.45;40.36;100165.63;4412947;32;20081;-74
2021/04/28 11:24:54;;;;;;;13.35;5.68;;;;;;;14.09;40.96;100171.44;4411531;32;20417;-75
2021/04/28 11:38:30;;;;;;;18.00;5.80;;;;;;;16.10;36.75;100170.38;3970936;32;15025507;-76
2021/04/28 11:43:35;;;;;;;26.80;7.40;;;;;;;16.67;35.67;100178.03;3975602;32;15026360;-76
2021/04/28 11:46:05;;;;;;;13.60;6.05;;;;;;;16.67;35.67;100178.03;4425876;32;20064;-74
2021/04/28 11:48:36;;;;;;;27.27;7.97;;;;;;;16.31;35.65;100172.78;4431261;32;20068;-76
2021/04/28 11:51:12;;;;;;;17.87;6.80;;;;;;;16.40;35.78;100166.22;4426956;32;20465;-73
2021/04/28 11:53:43;;;;;;;19.83;6.93;;;;;;;16.25;35.61;100169.06;4432144;32;20434;-74
2021/04/28 11:56:09;;;;;;;18.30;6.47;;;;;;;16.46;35.57;100176.41;4428076;32;20065;-74
2021/04/28 11:58:36;;;;;;;12.00;5.43;;;;;;;16.65;35.78;100166.37;4424484;32;20128;-74
2021/04/28 12:01:07;;;;;;;76.78;30.40;;;;;;;16.73;35.47;100164.69;4426906;32;20033;-75
2021/04/28 12:03:57;;;;;;;22.10;8.13;;;;;;;16.66;35.41;100170.00;4418862;32;20526;-74
2021/04/28 12:09:30;;;;;;;12.20;4.93;;;;;;;18.06;32.64;100163.44;3977639;32;15026598;-78
2021/04/28 12:12:14;;;;;;;10.02;5.35;;;;;;;18.06;32.64;100163.44;4431579;32;20122;-77
2021/04/28 12:14:47;;;;;;;17.62;5.15;;;;;;;17.49;33.27;100172.69;4427009;32;20446;-77
2021/04/28 12:17:17;;;;;;;17.60;4.85;;;;;;;17.41;33.38;100171.56;4429312;32;20034;-78
2021/04/28 12:19:45;;;;;;;19.92;5.75;;;;;;;17.47;33.45;100166.75;4429369;32;20076;-75
2021/04/28 12:22:12;;;;;;;20.50;6.50;;;;;;;16.97;33.90;100170.19;4430611;32;20139;-78